To NAV CANADA Home Page Login to a new session Search on AWWS site Disclaimer Vers la page française équivalente Tips FAQ What's new on the site To the Forecasts and Observations / NOTAM section To "File a Flight Plan" website Publications and other links Update of the User's profile FIC Telephone Numbers My Weather Data Folder Route Weather Data Regional Weather Data Local Weather Data To the Forecasts and Observations / NOTAM section
Request Generated 10/19/2018 at 16:23:20 UTC . Weather information available at that time is displayed.

METAR/TAF

HALIFAX/STANFIELD INTL/NS    (show WxCam)

METAR CYHZ 191600Z 29013G24KT 15SM FEW051 04/M07 A3005 RMK CU1 SLP184=
METAR CYHZ 191500Z 31013G20KT 15SM FEW045 FEW250 04/M07 A3006 RMK CU1CI1 CI TR SLP185=
METAR CYHZ 191400Z 30017G23KT 15SM FEW034 02/M06 A3006 RMK CU2 SLP186=

TAF CYHZ 191438Z 1915/2012 30012G22KT P6SM FEW030
FM192200 20010G20KT P6SM BKN040
RMK NXT FCST BY 191800Z=
Your time UTC time
Weather data provided by Environment Canada and NAV CANADA